Time;durP1;ratioP1;P1;durP2;ratioP2;P2;SDS_P1;SDS_P2;PMS_P1;PMS_P2;Temp;Humidity;BMP_temperature;BMP_pressure;BME280_temperature;BME280_humidity;BME280_pressure;Samples;Min_cycle;Max_cycle;Signal;HPM_P1;HPM_P2
2022/10/17 00:02:09;;;;;;;2.72;1.98;;;13.50;99.90;;;;;;5029656;28;20508;-82
2022/10/17 00:04:34;;;;;;;2.42;2.17;;;13.50;99.90;;;;;;5021229;28;20115;-80
2022/10/17 00:07:00;;;;;;;2.67;2.17;;;13.50;99.90;;;;;;5025404;28;20026;-83
2022/10/17 00:09:26;;;;;;;3.22;2.35;;;13.50;99.90;;;;;;5012702;28;20033;-82
2022/10/17 00:11:51;;;;;;;2.50;2.00;;;13.40;99.90;;;;;;5003177;28;20030;-83
2022/10/17 00:14:17;;;;;;;2.15;1.90;;;13.40;99.90;;;;;;5020359;28;20065;-82
2022/10/17 00:16:42;;;;;;;2.88;2.42;;;13.40;99.90;;;;;;5014142;28;20026;-82
2022/10/17 00:19:08;;;;;;;2.75;2.00;;;13.40;99.90;;;;;;4983202;28;20034;-82
2022/10/17 00:21:34;;;;;;;3.05;2.10;;;13.30;99.90;;;;;;4998130;28;20033;-82
2022/10/17 00:24:00;;;;;;;5.25;2.40;;;13.30;99.90;;;;;;4997846;28;20023;-82
2022/10/17 00:26:28;;;;;;;3.00;2.30;;;13.30;99.90;;;;;;4998016;28;20049;-82
2022/10/17 00:28:54;;;;;;;3.45;2.30;;;13.20;99.90;;;;;;4999496;28;20026;-81
2022/10/17 00:31:21;;;;;;;3.40;2.60;;;13.20;99.90;;;;;;5018333;28;20044;-81
2022/10/17 00:33:47;;;;;;;3.25;2.80;;;13.20;99.90;;;;;;5018317;28;20427;-82
2022/10/17 00:36:22;;;;;;;2.50;2.30;;;13.10;99.90;;;;;;5022912;28;20133;-82
2022/10/17 00:38:54;;;;;;;4.00;2.70;;;13.10;99.90;;;;;;5011429;28;20030;-82
2022/10/17 00:41:22;;;;;;;;;;;13.10;99.90;;;;;;4996615;28;20046;-82
2022/10/17 00:44:20;;;;;;;2.20;1.90;;;13.00;99.90;;;;;;4996535;28;20004;-82
2022/10/17 00:46:45;;;;;;;4.10;2.63;;;13.00;99.90;;;;;;4996507;28;20101;-81
2022/10/17 00:49:11;;;;;;;2.83;2.25;;;13.00;99.90;;;;;;4997562;28;20498;-80
2022/10/17 00:52:00;;;;;;;3.45;2.17;;;13.00;99.90;;;;;;4998317;28;20038;-82
2022/10/17 00:54:37;;;;;;;5.82;3.30;;;13.00;99.90;;;;;;4996917;28;20097;-82
2022/10/17 00:57:04;;;;;;;5.97;2.20;;;13.00;99.90;;;;;;4996717;28;20037;-82
2022/10/17 00:59:34;;;;;;;2.97;2.50;;;13.00;99.90;;;;;;4979471;28;20578;-81
2022/10/17 01:02:05;;;;;;;3.65;2.20;;;13.00;99.90;;;;;;4996830;28;20522;-81
2022/10/17 01:04:31;;;;;;;2.42;2.03;;;13.00;99.90;;;;;;4979480;28;20018;-83
2022/10/17 01:06:57;;;;;;;3.90;2.03;;;12.90;99.90;;;;;;5004478;28;20398;-81
2022/10/17 01:09:24;;;;;;;2.20;2.00;;;12.90;99.90;;;;;;5008306;28;20037;-83
2022/10/17 01:12:22;;;;;;;2.70;2.20;;;12.90;99.90;;;;;;5020218;28;20086;-81
2022/10/17 01:15:15;;;;;;;2.20;2.00;;;12.80;99.90;;;;;;5032891;28;20033;-80
2022/10/17 01:17:59;;;;;;;4.47;2.55;;;12.80;99.90;;;;;;5015948;28;20544;-81
2022/10/17 01:20:37;;;;;;;2.05;1.85;;;12.80;99.90;;;;;;4998519;28;20023;-81
2022/10/17 01:23:23;;;;;;;3.10;2.08;;;12.80;99.90;;;;;;4995970;28;20030;-81
2022/10/17 01:26:14;;;;;;;2.40;1.90;;;12.80;99.90;;;;;;4978948;28;20046;-82
2022/10/17 01:29:12;;;;;;;3.55;1.77;;;12.80;99.90;;;;;;5012796;28;20033;-81
2022/10/17 01:31:57;;;;;;;5.00;1.70;;;12.70;99.90;;;;;;5016575;28;20026;-80
2022/10/17 01:34:40;;;;;;;3.13;1.80;;;12.70;99.90;;;;;;5016350;28;20038;-82
2022/10/17 01:37:18;;;;;;;6.03;2.47;;;12.70;99.90;;;;;;5014341;28;20073;-82
2022/10/17 01:40:23;;;;;;;2.90;2.10;;;12.70;99.90;;;;;;4998791;28;20034;-81
2022/10/17 01:43:08;;;;;;;2.38;2.08;;;12.60;99.90;;;;;;5003629;28;20045;-81
2022/10/17 01:45:48;;;;;;;2.53;1.75;;;12.60;99.90;;;;;;4998222;28;20026;-81
2022/10/17 01:48:25;;;;;;;2.45;2.22;;;12.60;99.90;;;;;;5001736;28;20022;-80
2022/10/17 01:50:57;;;;;;;4.97;1.83;;;12.60;99.90;;;;;;5025464;28;20033;-82
2022/10/17 01:53:38;;;;;;;2.20;1.98;;;12.60;99.90;;;;;;5021483;28;20105;-81
2022/10/17 01:56:08;;;;;;;2.80;1.55;;;12.60;99.90;;;;;;5020176;28;20054;-82
2022/10/17 01:58:50;;;;;;;1.42;1.33;;;12.50;99.90;;;;;;5018164;28;20018;-81
2022/10/17 02:01:17;;;;;;;2.67;1.60;;;12.50;99.90;;;;;;5025861;28;20045;-81
2022/10/17 02:03:45;;;;;;;1.73;1.63;;;12.50;99.90;;;;;;5031630;28;20030;-81
2022/10/17 02:06:10;;;;;;;1.85;1.65;;;12.50;99.90;;;;;;5032354;28;20010;-82
2022/10/17 02:08:47;;;;;;;1.77;1.67;;;12.40;99.90;;;;;;5035981;28;20025;-83
2022/10/17 02:11:22;;;;;;;1.73;1.63;;;12.40;99.90;;;;;;5036504;28;20096;-81
2022/10/17 02:14:03;;;;;;;1.50;1.40;;;12.40;99.90;;;;;;5018448;28;20111;-82
2022/10/17 02:16:41;;;;;;;1.65;1.40;;;12.40;99.90;;;;;;5037331;28;20064;-83
2022/10/17 02:19:35;;;;;;;1.27;1.17;;;12.40;99.90;;;;;;5050287;28;20044;-82
2022/10/17 02:22:29;;;;;;;1.70;1.58;;;12.30;99.90;;;;;;5022290;28;20025;-82
2022/10/17 02:25:18;;;;;;;1.77;1.35;;;12.30;99.90;;;;;;5039346;28;20022;-82
2022/10/17 02:28:01;;;;;;;1.48;1.27;;;12.30;99.90;;;;;;5012939;28;20064;-81
2022/10/17 02:30:40;;;;;;;1.63;1.52;;;12.30;99.90;;;;;;5005264;28;20037;-81
2022/10/17 02:33:30;;;;;;;1.60;1.50;;;12.20;99.90;;;;;;5041188;28;20127;-81
2022/10/17 02:36:02;;;;;;;1.85;1.40;;;12.20;99.90;;;;;;5051674;28;20109;-82
2022/10/17 02:38:29;;;;;;;;;;;12.10;99.90;;;;;;5002859;28;20025;-82
2022/10/17 02:40:55;;;;;;;2.08;1.60;;;12.10;99.90;;;;;;5024766;28;19906;-82
2022/10/17 02:43:22;;;;;;;1.35;1.25;;;12.10;99.90;;;;;;5001047;28;20049;-82
2022/10/17 02:45:48;;;;;;;1.50;1.35;;;12.00;99.90;;;;;;5018113;28;20061;-81
2022/10/17 02:48:29;;;;;;;1.92;1.25;;;12.00;99.90;;;;;;5017822;28;20018;-83
2022/10/17 02:51:28;;;;;;;3.50;1.52;;;12.00;99.90;;;;;;5001457;28;20026;-83
2022/10/17 02:54:19;;;;;;;1.52;1.42;;;12.00;99.90;;;;;;5001464;28;20117;-82
2022/10/17 02:56:59;;;;;;;1.55;1.45;;;11.90;99.90;;;;;;5019084;28;20029;-81
2022/10/17 02:59:28;;;;;;;1.63;1.52;;;11.90;99.90;;;;;;5019395;28;20443;-81
2022/10/17 03:01:54;;;;;;;2.28;1.58;;;11.90;99.90;;;;;;5016896;28;20032;-82
2022/10/17 03:04:19;;;;;;;1.73;1.30;;;11.90;99.90;;;;;;5010383;28;20025;-83
2022/10/17 03:06:47;;;;;;;1.60;1.50;;;11.90;99.90;;;;;;4993986;28;20624;-83
2022/10/17 03:09:13;;;;;;;1.67;1.30;;;11.90;99.90;;;;;;4989351;28;20088;-82
2022/10/17 03:11:40;;;;;;;1.98;1.67;;;11.90;99.90;;;;;;4999084;28;20049;-82
2022/10/17 03:14:06;;;;;;;2.25;1.33;;;11.90;99.90;;;;;;4981714;28;20030;-81
2022/10/17 03:16:31;;;;;;;2.17;1.60;;;11.90;99.90;;;;;;4999398;28;20030;-81
2022/10/17 03:18:57;;;;;;;1.52;1.33;;;11.90;99.90;;;;;;4986678;28;20095;-84
2022/10/17 03:21:26;;;;;;;2.17;1.55;;;11.90;99.90;;;;;;5021706;28;20046;-84
2022/10/17 03:23:51;;;;;;;1.50;1.40;;;11.90;99.90;;;;;;5038411;28;20033;-84
2022/10/17 03:26:17;;;;;;;1.33;1.23;;;11.90;99.90;;;;;;5038247;28;20025;-84
2022/10/17 03:28:43;;;;;;;2.42;1.35;;;11.90;99.90;;;;;;5038418;28;20018;-83
2022/10/17 03:31:10;;;;;;;2.35;1.30;;;11.90;99.90;;;;;;5020485;28;20085;-83
2022/10/17 03:33:36;;;;;;;2.67;1.70;;;11.80;99.90;;;;;;5018394;28;20065;-84
2022/10/17 03:36:11;;;;;;;1.75;1.33;;;11.90;99.90;;;;;;5027068;22;20022;-82
2022/10/17 03:38:38;;;;;;;1.20;1.08;;;11.90;99.90;;;;;;4972161;28;20042;-85
2022/10/17 03:41:04;;;;;;;1.42;1.25;;;11.90;99.90;;;;;;4982652;28;20056;-83
2022/10/17 03:43:30;;;;;;;1.50;1.40;;;11.80;99.90;;;;;;4990682;28;20055;-84
2022/10/17 03:45:57;;;;;;;1.52;1.42;;;11.80;99.90;;;;;;4983001;28;20426;-83
2022/10/17 03:48:23;;;;;;;1.50;1.40;;;11.80;99.90;;;;;;5037725;28;20045;-81
2022/10/17 03:50:49;;;;;;;3.97;1.45;;;11.90;99.90;;;;;;5012695;28;20053;-84
2022/10/17 03:53:15;;;;;;;1.48;1.38;;;11.90;99.90;;;;;;5007453;28;20026;-84
2022/10/17 03:55:41;;;;;;;1.83;1.50;;;11.80;99.90;;;;;;5006398;28;20025;-85
2022/10/17 03:58:06;;;;;;;2.00;1.50;;;11.80;99.90;;;;;;5007307;28;20032;-85
2022/10/17 04:00:34;;;;;;;1.40;1.30;;;11.80;99.90;;;;;;4999786;28;20553;-84
2022/10/17 04:03:00;;;;;;;2.35;1.42;;;11.70;99.90;;;;;;5002490;28;20316;-85
2022/10/17 04:05:26;;;;;;;5.45;1.83;;;11.80;99.90;;;;;;5004931;28;20034;-84
2022/10/17 04:07:52;;;;;;;5.20;1.60;;;11.80;99.90;;;;;;5004728;28;20026;-84
2022/10/17 04:10:17;;;;;;;2.42;1.88;;;11.80;99.90;;;;;;5003545;28;20022;-82
2022/10/17 04:12:43;;;;;;;2.10;1.85;;;11.80;99.90;;;;;;5004443;28;20030;-84
2022/10/17 04:15:09;;;;;;;1.70;1.55;;;11.70;99.90;;;;;;5006957;28;20462;-85
2022/10/17 04:17:35;;;;;;;1.80;1.67;;;11.70;99.90;;;;;;4988188;28;20264;-84
2022/10/17 04:20:00;;;;;;;2.33;1.92;;;11.70;99.90;;;;;;5001407;28;20026;-82
2022/10/17 04:22:26;;;;;;;2.97;1.83;;;11.70;99.90;;;;;;4982922;28;20034;-81
2022/10/17 04:24:52;;;;;;;2.20;1.75;;;11.70;99.90;;;;;;4989270;28;20093;-81
2022/10/17 04:27:18;;;;;;;2.95;1.60;;;11.70;99.90;;;;;;5015223;28;20026;-81
2022/10/17 04:29:43;;;;;;;6.50;2.20;;;11.70;99.90;;;;;;5023835;28;20018;-79
2022/10/17 04:32:09;;;;;;;2.55;1.92;;;11.70;99.90;;;;;;5006199;28;20029;-81
2022/10/17 04:34:34;;;;;;;3.90;2.15;;;11.60;99.90;;;;;;4992439;28;20019;-82
2022/10/17 04:37:00;;;;;;;1.70;1.55;;;11.60;99.90;;;;;;5000715;28;20415;-81
2022/10/17 04:39:26;;;;;;;2.90;1.95;;;11.60;99.90;;;;;;5004701;28;20034;-82
2022/10/17 04:41:51;;;;;;;1.77;1.60;;;11.60;99.90;;;;;;5002913;28;20089;-82
2022/10/17 04:44:17;;;;;;;1.80;1.60;;;11.60;99.90;;;;;;5003736;28;20113;-81
2022/10/17 04:46:43;;;;;;;1.70;1.60;;;11.60;99.90;;;;;;5000565;28;20102;-83
2022/10/17 04:49:08;;;;;;;1.63;1.50;;;11.60;99.90;;;;;;5002999;28;20041;-83
2022/10/17 04:51:34;;;;;;;2.17;1.88;;;11.50;99.90;;;;;;4982396;28;20031;-81
2022/10/17 04:54:00;;;;;;;3.15;1.88;;;11.50;99.90;;;;;;5000797;28;20026;-81
2022/10/17 04:56:26;;;;;;;3.58;1.70;;;11.50;99.90;;;;;;4982941;28;20042;-82
2022/10/17 04:58:51;;;;;;;2.20;1.52;;;11.50;99.90;;;;;;5003050;28;20027;-82
2022/10/17 05:01:19;;;;;;;1.60;1.40;;;11.50;99.90;;;;;;5001431;28;20109;-83
2022/10/17 05:03:45;;;;;;;1.73;1.60;;;11.40;99.90;;;;;;5001798;28;20062;-82
2022/10/17 05:06:14;;;;;;;2.33;1.70;;;11.40;99.90;;;;;;5000961;28;20026;-81
2022/10/17 05:08:40;;;;;;;2.10;1.85;;;11.40;99.90;;;;;;5001285;28;20412;-82
2022/10/17 05:11:24;;;;;;;2.25;2.00;;;11.40;99.90;;;;;;5001868;28;20034;-83
2022/10/17 05:13:58;;;;;;;3.95;1.95;;;11.40;99.90;;;;;;5003458;28;20438;-83
2022/10/17 05:16:24;;;;;;;3.42;1.98;;;11.40;99.90;;;;;;5003091;28;20031;-82
2022/10/17 05:18:52;;;;;;;2.05;1.85;;;11.30;99.90;;;;;;5002420;28;20337;-82
2022/10/17 05:21:18;;;;;;;2.35;1.77;;;11.30;99.90;;;;;;4991605;28;20030;-79
2022/10/17 05:23:44;;;;;;;6.10;2.38;;;11.30;99.90;;;;;;4998247;28;20027;-80
2022/10/17 05:26:10;;;;;;;3.28;2.25;;;11.30;99.90;;;;;;5016246;28;20015;-81
2022/10/17 05:28:36;;;;;;;3.88;1.80;;;11.30;99.90;;;;;;5016606;28;20029;-79
2022/10/17 05:31:06;;;;;;;2.30;2.10;;;11.30;99.90;;;;;;5015276;28;20096;-77
2022/10/17 05:33:32;;;;;;;2.75;2.17;;;11.30;99.90;;;;;;4992205;28;20220;-83
2022/10/17 05:35:59;;;;;;;2.78;1.92;;;11.30;99.90;;;;;;4990022;28;20041;-82
2022/10/17 05:38:25;;;;;;;2.33;2.10;;;11.30;99.90;;;;;;4997846;28;20037;-83
2022/10/17 05:40:51;;;;;;;3.15;2.25;;;11.30;99.90;;;;;;5001956;28;20085;-83
2022/10/17 05:43:17;;;;;;;2.63;2.03;;;11.30;99.90;;;;;;5003477;28;20030;-81
2022/10/17 05:45:45;;;;;;;1.80;1.70;;;11.30;99.90;;;;;;4982487;28;20034;-83
2022/10/17 05:48:11;;;;;;;3.47;1.90;;;11.30;99.90;;;;;;5003530;28;20074;-80
2022/10/17 05:50:37;;;;;;;2.30;1.88;;;11.30;99.90;;;;;;5002460;28;20038;-83
2022/10/17 05:53:02;;;;;;;2.80;2.00;;;11.30;99.90;;;;;;4985146;28;20550;-83
2022/10/17 05:55:28;;;;;;;2.30;1.90;;;11.30;99.90;;;;;;5001976;28;20066;-83
2022/10/17 05:57:54;;;;;;;2.88;2.25;;;11.40;99.90;;;;;;4983600;28;20031;-84
2022/10/17 06:00:20;;;;;;;5.15;2.63;;;11.40;99.90;;;;;;4984096;28;20046;-82
2022/10/17 06:02:47;;;;;;;1.90;1.80;;;11.40;99.90;;;;;;5000821;28;20086;-81
2022/10/17 06:05:13;;;;;;;2.65;2.10;;;11.50;99.90;;;;;;5002058;28;20069;-82
2022/10/17 06:07:41;;;;;;;4.65;2.70;;;11.50;99.90;;;;;;4996330;28;20035;-83
2022/10/17 06:10:07;;;;;;;3.88;2.38;;;11.50;99.90;;;;;;4982107;28;20018;-83
2022/10/17 06:12:33;;;;;;;3.78;2.30;;;11.50;99.90;;;;;;5000920;28;20022;-83
2022/10/17 06:14:59;;;;;;;4.40;2.25;;;11.60;99.90;;;;;;4987666;28;20042;-82
2022/10/17 06:17:24;;;;;;;3.67;2.25;;;11.60;99.90;;;;;;4985410;28;20033;-82
2022/10/17 06:19:50;;;;;;;3.13;2.58;;;11.60;99.90;;;;;;4999394;28;20667;-82
2022/10/17 06:22:15;;;;;;;3.97;2.20;;;11.70;99.90;;;;;;4985020;28;20076;-83
2022/10/17 06:24:41;;;;;;;5.00;2.03;;;11.70;99.90;;;;;;5000123;28;20069;-82
2022/10/17 06:27:07;;;;;;;2.70;1.65;;;11.70;99.90;;;;;;5000160;28;20025;-81
2022/10/17 06:29:33;;;;;;;2.58;2.13;;;11.70;99.90;;;;;;4999757;28;20034;-83
2022/10/17 06:31:59;;;;;;;3.05;1.88;;;11.70;99.90;;;;;;5000061;28;20026;-83
2022/10/17 06:34:25;;;;;;;2.85;2.25;;;11.80;99.90;;;;;;5001281;28;20038;-80
2022/10/17 06:36:52;;;;;;;2.88;2.30;;;11.80;99.90;;;;;;4993925;28;20038;-85
2022/10/17 06:39:18;;;;;;;4.15;2.38;;;11.90;99.90;;;;;;4992999;28;20026;-81
2022/10/17 06:41:44;;;;;;;3.20;2.13;;;11.90;99.90;;;;;;5017600;28;20098;-78
2022/10/17 06:44:10;;;;;;;2.13;1.75;;;12.00;99.90;;;;;;5016733;28;20364;-81
2022/10/17 06:46:37;;;;;;;2.95;2.47;;;12.00;99.90;;;;;;4993724;28;20030;-81
2022/10/17 06:49:03;;;;;;;3.03;2.47;;;;;;;;;;5009901;28;20022;-79
2022/10/17 06:51:30;;;;;;;6.03;2.60;;;12.20;99.90;;;;;;4992765;28;20022;-79
2022/10/17 06:53:58;;;;;;;5.03;2.92;;;12.30;99.90;;;;;;5012365;28;20038;-80
2022/10/17 06:56:24;;;;;;;3.47;2.38;;;12.30;99.90;;;;;;5009270;28;20030;-82
2022/10/17 06:58:50;;;;;;;2.63;2.38;;;12.40;99.90;;;;;;5010022;28;20033;-81
2022/10/17 07:01:16;;;;;;;5.45;2.95;;;12.50;99.90;;;;;;4991775;28;20038;-80
2022/10/17 07:03:42;;;;;;;3.63;2.63;;;12.60;99.90;;;;;;5011450;28;20030;-81
2022/10/17 07:06:12;;;;;;;4.47;2.75;;;12.70;99.90;;;;;;4996065;28;20065;-79
2022/10/17 07:08:41;;;;;;;3.58;2.67;;;12.90;99.90;;;;;;5011403;28;20030;-81
2022/10/17 07:11:14;;;;;;;3.88;2.67;;;13.00;99.90;;;;;;5009575;28;20030;-81
2022/10/17 07:13:40;;;;;;;4.82;3.50;;;13.20;99.90;;;;;;5009666;28;20129;-77
2022/10/17 07:16:06;;;;;;;5.55;2.95;;;13.30;99.90;;;;;;5009423;28;20050;-80
2022/10/17 07:18:32;;;;;;;7.32;2.95;;;13.40;99.90;;;;;;5011096;28;20117;-82
2022/10/17 07:20:58;;;;;;;8.65;3.22;;;13.60;99.90;;;;;;4993728;28;20042;-81
2022/10/17 07:23:24;;;;;;;4.95;3.63;;;13.70;99.90;;;;;;5012864;28;20041;-80
2022/10/17 07:25:49;;;;;;;3.83;2.80;;;13.80;99.90;;;;;;4996288;28;20042;-80
2022/10/17 07:28:16;;;;;;;4.93;2.85;;;13.90;99.90;;;;;;5016650;28;20026;-78
2022/10/17 07:30:41;;;;;;;3.80;3.38;;;14.10;99.90;;;;;;5017226;28;20015;-80
2022/10/17 07:33:11;;;;;;;5.38;3.42;;;14.30;99.90;;;;;;4997076;28;20093;-81
2022/10/17 07:35:40;;;;;;;2.55;2.20;;;14.40;99.90;;;;;;4993795;28;20034;-80
2022/10/17 07:38:06;;;;;;;3.85;2.83;;;14.60;99.20;;;;;;4993802;28;20038;-80
2022/10/17 07:40:32;;;;;;;4.05;2.53;;;14.80;98.40;;;;;;5011608;28;20098;-80
2022/10/17 07:42:58;;;;;;;5.45;2.40;;;15.00;97.70;;;;;;4993427;28;20072;-79
2022/10/17 07:45:26;;;;;;;3.50;2.70;;;15.20;97.10;;;;;;5010761;28;20022;-80
2022/10/17 07:47:56;;;;;;;4.32;3.17;;;15.40;96.60;;;;;;5009546;28;20034;-80
2022/10/17 07:50:21;;;;;;;5.00;2.95;;;15.60;95.90;;;;;;5010480;28;20034;-80
2022/10/17 07:52:47;;;;;;;3.38;3.08;;;15.80;95.10;;;;;;5011800;28;20036;-81
2022/10/17 07:55:13;;;;;;;3.05;2.75;;;15.90;94.10;;;;;;5010552;28;20023;-82
2022/10/17 07:57:39;;;;;;;5.07;2.83;;;16.00;93.40;;;;;;5009444;28;20043;-79
2022/10/17 08:00:06;;;;;;;4.60;2.90;;;16.10;93.00;;;;;;5010117;28;20027;-80
2022/10/17 08:02:32;;;;;;;3.15;2.80;;;16.30;92.60;;;;;;5012372;28;20053;-79
2022/10/17 08:04:58;;;;;;;2.65;2.45;;;16.50;92.30;;;;;;5012326;28;20042;-79
2022/10/17 08:07:23;;;;;;;5.80;2.75;;;16.70;91.70;;;;;;5009634;28;20030;-81
2022/10/17 08:09:49;;;;;;;2.70;2.50;;;16.80;91.40;;;;;;5010558;28;20030;-79
2022/10/17 08:12:15;;;;;;;2.83;2.30;;;16.90;91.10;;;;;;5009915;28;20070;-79
2022/10/17 08:14:42;;;;;;;2.85;2.35;;;17.10;90.70;;;;;;4993331;28;20019;-79
2022/10/17 08:17:07;;;;;;;2.83;2.42;;;17.30;90.40;;;;;;5011778;28;20026;-80
2022/10/17 08:19:33;;;;;;;2.97;2.70;;;17.50;89.80;;;;;;5011812;28;20072;-79
2022/10/17 08:22:00;;;;;;;4.38;2.78;;;17.70;88.60;;;;;;5012519;28;20046;-79
2022/10/17 08:24:25;;;;;;;3.17;2.42;;;17.80;87.40;;;;;;5015629;28;20080;-81
2022/10/17 08:26:52;;;;;;;2.47;2.28;;;18.00;86.70;;;;;;5027002;28;20094;-78
2022/10/17 08:29:18;;;;;;;3.53;2.20;;;18.20;85.90;;;;;;5014543;28;20022;-81
2022/10/17 08:31:44;;;;;;;3.15;2.40;;;18.40;84.80;;;;;;5015820;28;20053;-79
2022/10/17 08:34:10;;;;;;;4.68;2.95;;;18.50;84.30;;;;;;5022515;28;20010;-78
2022/10/17 08:36:36;;;;;;;2.72;2.40;;;18.80;83.10;;;;;;5012048;28;20088;-80
2022/10/17 08:39:02;;;;;;;2.60;2.38;;;18.90;82.30;;;;;;5010858;28;20022;-80
2022/10/17 08:41:43;;;;;;;3.70;2.55;;;19.10;81.30;;;;;;5012205;28;20085;-81
2022/10/17 08:44:27;;;;;;;3.22;2.70;;;19.30;79.90;;;;;;5011630;28;20018;-80
2022/10/17 08:46:57;;;;;;;4.45;2.67;;;19.50;79.00;;;;;;5005483;28;20031;-81
2022/10/17 08:50:09;;;;;;;3.17;2.70;;;19.70;78.30;;;;;;4993052;28;20007;-82
2022/10/17 08:52:45;;;;;;;3.00;2.75;;;19.90;77.30;;;;;;5007518;28;20053;-81
2022/10/17 08:55:32;;;;;;;4.47;2.33;;;20.10;75.90;;;;;;5009418;28;20025;-80
2022/10/17 08:57:59;;;;;;;6.38;3.28;;;20.30;75.40;;;;;;5008804;28;20022;-82
2022/10/17 09:00:27;;;;;;;4.72;3.30;;;20.40;74.60;;;;;;4991998;28;20034;-82
2022/10/17 09:03:16;;;;;;;7.50;3.13;;;20.60;72.60;;;;;;5008204;28;20105;-83
2022/10/17 09:05:50;;;;;;;3.38;2.60;;;20.60;71.80;;;;;;5009244;28;20410;-82
2022/10/17 09:08:21;;;;;;;3.55;2.50;;;20.70;72.10;;;;;;5009489;28;20053;-80
2022/10/17 09:11:02;;;;;;;3.90;3.13;;;20.90;71.20;;;;;;5009753;28;20205;-82
2022/10/17 09:13:53;;;;;;;4.75;2.80;;;21.00;69.10;;;;;;4999012;28;20069;-82
2022/10/17 09:16:38;;;;;;;3.55;2.78;;;21.00;68.50;;;;;;4991529;28;20061;-81
2022/10/17 09:19:14;;;;;;;3.05;2.38;;;21.10;68.10;;;;;;4989627;28;20019;-82
2022/10/17 09:21:45;;;;;;;2.78;2.50;;;21.20;68.10;;;;;;4989546;28;20019;-83
2022/10/17 09:24:29;;;;;;;2.45;2.10;;;21.30;67.80;;;;;;4979640;28;20050;-83
2022/10/17 09:26:55;;;;;;;1.90;1.80;;;21.40;67.80;;;;;;5007933;28;20364;-81
2022/10/17 09:29:24;;;;;;;5.13;2.15;;;21.50;67.20;;;;;;4991059;28;20085;-80
2022/10/17 09:31:54;;;;;;;3.38;2.10;;;21.60;66.20;;;;;;5010844;28;20105;-82
2022/10/17 09:34:21;;;;;;;4.72;3.00;;;21.80;66.10;;;;;;5012156;28;20108;-82
2022/10/17 12:51:02;;;;;;;1.80;1.70;;;25.70;49.40;;;;;;3284349;26;20051;-81
2022/10/17 12:54:19;;;;;;;1.65;1.55;;;25.80;49.40;;;;;;4945154;29;20147;-83
2022/10/17 13:00:40;;;;;;;2.25;1.75;;;26.00;48.70;;;;;;4881977;29;20044;-81
2022/10/17 13:03:23;;;;;;;4.18;1.52;;;26.10;48.60;;;;;;4875912;29;20122;-81
2022/10/17 13:06:04;;;;;;;1.42;1.00;;;26.20;47.70;;;;;;4904851;29;20114;-81
2022/10/17 13:08:37;;;;;;;1.75;1.63;;;26.20;47.30;;;;;;4923948;29;20028;-81
2022/10/17 13:11:05;;;;;;;2.85;1.60;;;26.20;47.20;;;;;;4956141;29;20129;-82
2022/10/17 13:14:16;;;;;;;1.80;1.48;;;26.30;46.60;;;;;;4924370;29;20027;-81
2022/10/17 13:16:58;;;;;;;1.40;1.30;;;26.30;47.00;;;;;;4934355;29;20114;-83
2022/10/17 13:19:29;;;;;;;2.67;1.88;;;26.60;47.00;;;;;;4943602;29;20054;-82
2022/10/17 13:22:03;;;;;;;1.85;1.73;;;26.90;46.40;;;;;;4925612;29;20055;-82
2022/10/17 13:24:57;;;;;;;2.22;2.03;;;27.20;45.60;;;;;;4943424;29;20023;-82
2022/10/17 13:27:42;;;;;;;2.33;1.85;;;27.30;45.20;;;;;;4942708;29;20043;-82
2022/10/17 13:30:37;;;;;;;1.67;1.58;;;27.30;44.60;;;;;;4942829;29;20035;-82
2022/10/17 13:33:18;;;;;;;2.25;1.42;;;27.20;44.10;;;;;;4925971;29;20039;-81
2022/10/17 13:35:51;;;;;;;1.52;1.42;;;27.10;43.70;;;;;;4941919;29;20028;-83
2022/10/17 13:38:26;;;;;;;1.60;1.50;;;27.00;43.40;;;;;;4943413;29;20599;-83
2022/10/17 13:40:54;;;;;;;3.55;1.70;;;26.80;43.70;;;;;;4959907;29;20086;-83
2022/10/17 13:43:44;;;;;;;3.10;1.52;;;26.70;43.30;;;;;;4940257;29;20067;-81
2022/10/17 13:46:30;;;;;;;1.52;1.20;;;26.60;43.70;;;;;;4938792;29;20036;-83
2022/10/17 13:48:58;;;;;;;1.60;1.50;;;26.60;43.40;;;;;;4941435;28;20083;-83
2022/10/17 13:51:44;;;;;;;1.50;1.40;;;26.50;43.60;;;;;;4927690;29;20039;-81
2022/10/17 13:54:32;;;;;;;1.98;1.88;;;26.30;44.00;;;;;;4924016;29;20098;-81
2022/10/17 13:56:58;;;;;;;2.75;1.85;;;26.30;44.20;;;;;;4941719;29;20028;-80
2022/10/17 13:59:40;;;;;;;1.58;1.45;;;26.20;44.20;;;;;;4923712;29;20051;-80
2022/10/17 14:02:15;;;;;;;2.35;1.80;;;26.20;44.50;;;;;;4956734;29;20121;-81
2022/10/17 15:38:30;;;;;;;4.53;1.80;;;22.30;58.00;;;;;;4999141;23;20165;-81
2022/10/17 15:40:56;;;;;;;2.35;1.58;;;22.10;58.50;;;;;;5005409;28;20027;-82
2022/10/17 15:43:22;;;;;;;2.20;2.00;;;22.00;58.70;;;;;;5007485;28;20035;-82
2022/10/17 15:45:47;;;;;;;3.67;2.00;;;21.90;59.20;;;;;;4988498;28;20035;-82
2022/10/17 15:48:23;;;;;;;4.43;2.00;;;21.80;59.70;;;;;;4991140;28;20026;-82
2022/10/17 15:50:49;;;;;;;3.08;2.08;;;21.70;60.50;;;;;;4976392;28;20466;-82
2022/10/17 15:53:14;;;;;;;2.53;1.70;;;21.50;61.10;;;;;;5006510;28;20026;-82
2022/10/17 15:55:40;;;;;;;6.45;2.28;;;21.40;61.70;;;;;;4986883;28;20064;-82
2022/10/17 15:58:09;;;;;;;2.58;2.22;;;21.30;61.60;;;;;;5004235;28;20029;-84
2022/10/17 16:00:35;;;;;;;3.45;2.05;;;21.20;61.50;;;;;;4976645;28;20026;-83
2022/10/17 16:03:01;;;;;;;2.30;2.10;;;21.10;61.40;;;;;;4999396;28;20027;-82
2022/10/17 16:05:27;;;;;;;2.35;1.80;;;21.00;61.70;;;;;;5001308;28;20050;-83
2022/10/17 16:07:54;;;;;;;2.35;1.65;;;20.90;62.00;;;;;;4986129;28;20126;-83
2022/10/17 16:10:21;;;;;;;2.60;1.70;;;20.80;62.50;;;;;;4995190;28;20081;-83
2022/10/17 16:12:48;;;;;;;2.83;2.15;;;20.60;62.70;;;;;;4968591;28;20189;-83
2022/10/17 16:15:21;;;;;;;2.75;1.80;;;20.50;63.10;;;;;;4995581;28;20030;-83
2022/10/17 16:17:48;;;;;;;3.42;2.03;;;20.40;63.50;;;;;;4985654;28;20101;-83
2022/10/17 16:20:14;;;;;;;2.25;1.95;;;20.30;63.80;;;;;;4991161;28;20414;-84
2022/10/17 16:22:42;;;;;;;2.50;1.90;;;20.20;64.70;;;;;;4986553;28;20074;-83
2022/10/17 16:25:25;;;;;;;4.28;2.00;;;20.00;65.60;;;;;;5004331;28;20434;-82
2022/10/17 16:27:53;;;;;;;2.67;2.08;;;19.80;66.50;;;;;;4983651;28;20042;-82
2022/10/17 16:30:20;;;;;;;3.85;2.05;;;19.70;68.00;;;;;;5002330;28;20043;-83
2022/10/17 16:32:47;;;;;;;2.03;1.92;;;19.50;68.80;;;;;;5001110;28;20034;-83
2022/10/17 16:35:18;;;;;;;3.15;1.95;;;19.30;69.80;;;;;;5019794;28;20037;-82
2022/10/17 16:37:43;;;;;;;2.67;1.92;;;19.20;70.60;;;;;;4993505;28;20131;-83
2022/10/17 16:40:10;;;;;;;3.58;2.38;;;19.10;72.10;;;;;;4986291;28;20027;-83
2022/10/17 16:42:35;;;;;;;2.33;2.13;;;19.00;72.90;;;;;;4989185;28;20093;-84
2022/10/17 16:45:01;;;;;;;3.22;2.28;;;18.90;73.70;;;;;;5013162;28;20063;-82
2022/10/17 16:47:27;;;;;;;2.65;2.28;;;18.80;74.20;;;;;;5004814;28;20085;-84
2022/10/17 16:49:52;;;;;;;4.05;2.50;;;18.60;74.80;;;;;;4987724;28;20038;-83
2022/10/17 16:52:18;;;;;;;3.88;2.65;;;18.60;75.80;;;;;;5008825;28;20160;-83
2022/10/17 16:54:44;;;;;;;6.15;2.80;;;18.50;76.60;;;;;;5018200;28;20034;-83
2022/10/17 16:57:18;;;;;;;7.90;3.55;;;18.40;77.10;;;;;;4993817;28;20100;-83
2022/10/17 16:59:43;;;;;;;3.58;2.83;;;18.40;77.80;;;;;;5016374;28;20039;-83
2022/10/17 17:02:12;;;;;;;2.78;2.40;;;18.30;78.00;;;;;;5017635;28;20015;-85
2022/10/17 17:04:41;;;;;;;2.28;2.08;;;18.20;78.60;;;;;;5001530;28;20054;-84
2022/10/17 17:07:07;;;;;;;4.22;2.45;;;18.10;79.10;;;;;;5006986;28;20030;-84
2022/10/17 17:09:32;;;;;;;3.90;2.53;;;18.10;79.70;;;;;;5002319;28;20072;-83
2022/10/17 17:11:58;;;;;;;3.25;2.53;;;17.90;80.10;;;;;;5002510;28;20029;-82
2022/10/17 17:14:24;;;;;;;2.75;2.35;;;17.80;81.50;;;;;;4992792;28;20054;-83
2022/10/17 17:16:49;;;;;;;2.55;2.35;;;17.70;81.40;;;;;;4980587;28;20030;-83
2022/10/17 17:19:15;;;;;;;5.18;2.85;;;17.70;82.00;;;;;;5001325;28;20030;-84
2022/10/17 17:21:46;;;;;;;3.70;2.42;;;17.60;82.50;;;;;;5002493;28;20023;-83
2022/10/17 17:24:12;;;;;;;3.38;2.40;;;17.50;82.70;;;;;;4999511;28;20090;-84
2022/10/17 17:26:39;;;;;;;5.20;3.13;;;17.50;83.00;;;;;;4992096;28;20038;-82
2022/10/17 17:29:05;;;;;;;4.10;3.20;;;17.50;83.80;;;;;;5004234;28;20034;-82
2022/10/17 17:31:32;;;;;;;4.05;2.70;;;17.50;84.70;;;;;;5014255;28;20034;-83
2022/10/17 17:33:58;;;;;;;3.92;3.22;;;17.50;85.10;;;;;;5004677;28;20026;-83
2022/10/17 17:36:30;;;;;;;5.00;3.13;;;17.50;85.60;;;;;;5009389;28;20034;-84
2022/10/17 17:38:58;;;;;;;6.07;3.20;;;17.40;86.30;;;;;;4983417;28;20045;-84
2022/10/17 17:41:24;;;;;;;4.10;3.10;;;17.40;86.90;;;;;;4984225;28;20682;-84
2022/10/17 17:43:50;;;;;;;3.72;2.85;;;17.30;87.30;;;;;;4982614;28;20023;-85
2022/10/17 17:46:18;;;;;;;2.63;2.40;;;17.30;87.90;;;;;;5002090;28;20566;-83
2022/10/17 17:48:45;;;;;;;3.47;2.65;;;17.30;88.50;;;;;;4985653;28;20034;-84
2022/10/17 17:51:13;;;;;;;3.00;2.75;;;17.10;89.10;;;;;;4968587;28;20037;-82
2022/10/17 17:53:39;;;;;;;3.17;2.38;;;17.10;89.70;;;;;;4979797;28;20030;-80
2022/10/17 17:56:13;;;;;;;2.92;2.50;;;17.00;90.10;;;;;;4984966;28;20122;-82
2022/10/17 17:58:42;;;;;;;3.40;2.25;;;16.90;90.40;;;;;;4999531;28;20022;-81